createdAt,value
2023-04-09T00:00:14.899Z,99103.44
2023-04-09T00:01:16.386Z,99099.75
2023-04-09T00:02:17.830Z,99104.53
2023-04-09T00:03:19.361Z,99096.97
2023-04-09T00:04:22.439Z,99102.25
2023-04-09T00:05:23.914Z,99096.22
2023-04-09T00:06:25.939Z,99099.63
2023-04-09T00:07:28.074Z,99097.31
2023-04-09T00:08:29.622Z,99098.06
2023-04-09T00:09:31.163Z,99091.28
2023-04-09T00:10:32.645Z,99094.97
2023-04-09T00:11:34.213Z,99096.41
2023-04-09T00:12:35.727Z,99098.91
2023-04-09T00:13:39.545Z,99100.00
2023-04-09T00:14:41.472Z,99094.88
2023-04-09T00:15:42.904Z,99096.84
2023-04-09T00:16:44.999Z,99099.47
2023-04-09T00:17:46.566Z,99094.22
2023-04-09T00:18:48.101Z,99096.09
2023-04-09T00:19:49.595Z,99095.50
2023-04-09T00:20:51.355Z,99098.47
2023-04-09T00:21:53.389Z,99098.47
2023-04-09T00:22:56.420Z,99095.03
2023-04-09T00:23:57.943Z,99096.16
2023-04-09T00:24:59.428Z,99093.50
2023-04-09T00:26:01.322Z,99092.41
2023-04-09T00:27:02.769Z,99094.75
2023-04-09T00:28:04.256Z,99090.25
2023-04-09T00:29:06.065Z,99094.75
2023-04-09T00:30:08.759Z,99100.00
2023-04-09T00:31:10.968Z,99092.13
2023-04-09T00:32:12.508Z,99096.16
2023-04-09T00:33:13.966Z,99097.69
2023-04-09T00:34:15.943Z,99100.31
2023-04-09T00:35:17.617Z,99107.13
2023-04-09T00:36:19.131Z,99096.28
2023-04-09T00:37:20.647Z,99099.25
2023-04-09T00:38:22.119Z,99097.69
2023-04-09T00:39:24.055Z,99093.50
2023-04-09T00:40:25.492Z,99100.31
2023-04-09T00:41:26.953Z,99097.69
2023-04-09T00:42:32.232Z,99095.19
2023-04-09T00:43:34.159Z,99096.09
2023-04-09T00:44:35.740Z,99097.63
2023-04-09T00:45:38.103Z,99087.44
2023-04-09T00:46:39.713Z,99094.56
2023-04-09T00:47:43.158Z,99096.72
2023-04-09T00:48:45.309Z,99087.28
2023-04-09T00:49:46.746Z,99096.28
2023-04-09T00:50:48.729Z,99095.03
2023-04-09T00:51:50.627Z,99100.78
2023-04-09T00:52:52.341Z,99091.97
2023-04-09T00:53:55.300Z,99096.81
2023-04-09T00:54:56.905Z,99095.25
2023-04-09T00:55:58.984Z,99091.75
2023-04-09T00:57:00.677Z,99088.31
2023-04-09T00:58:02.817Z,99093.56
2023-04-09T00:59:04.827Z,99093.13
2023-04-09T01:00:07.805Z,99095.75
2023-04-09T01:01:09.406Z,99092.56
2023-04-09T01:02:11.258Z,99094.16
2023-04-09T01:03:13.050Z,99103.91
2023-04-09T01:04:15.089Z,99093.84
2023-04-09T01:05:16.698Z,99092.28
2023-04-09T01:06:32.553Z,99093.53
2023-04-09T01:08:01.116Z,99087.59
2023-04-09T01:09:15.438Z,99095.19
2023-04-09T01:10:38.188Z,99089.16
2023-04-09T01:12:02.592Z,99093.97
2023-04-09T01:13:19.368Z,99090.91
2023-04-09T01:14:37.413Z,99091.09
2023-04-09T01:15:46.708Z,99088.47
2023-04-09T01:16:57.313Z,99093.84
2023-04-09T01:18:19.078Z,99086.41
2023-04-09T01:19:43.961Z,99088.59
2023-04-09T01:20:57.542Z,99090.13
2023-04-09T01:22:00.444Z,99090.56
2023-04-09T01:23:14.096Z,99083.16
2023-04-09T01:24:39.372Z,99090.84
2023-04-09T01:25:53.472Z,99093.78
2023-04-09T01:27:06.804Z,99083.25
2023-04-09T01:28:26.171Z,99086.97
2023-04-09T01:29:31.681Z,99084.97
2023-04-09T01:30:33.497Z,99087.94
2023-04-09T01:31:38.339Z,99084.53
2023-04-09T01:32:40.827Z,99083.63
2023-04-09T01:33:43.325Z,99082.88
2023-04-09T01:34:47.479Z,99085.81
2023-04-09T01:35:50.585Z,99086.72
2023-04-09T01:36:56.702Z,99086.72
2023-04-09T01:37:58.458Z,99085.63
2023-04-09T01:39:03.363Z,99089.66
2023-04-09T01:40:05.668Z,99090.44
2023-04-09T01:41:08.886Z,99092.00
2023-04-09T01:42:12.751Z,99089.47
2023-04-09T01:43:15.925Z,99089.78
2023-04-09T01:44:18.238Z,99085.78
2023-04-09T01:45:20.892Z,99085.13
2023-04-09T01:46:24.454Z,99088.84
2023-04-09T01:47:27.476Z,99081.91
2023-04-09T01:48:31.532Z,99080.38
2023-04-09T01:49:33.678Z,99087.03
2023-04-09T01:50:35.657Z,99088.25
2023-04-09T01:51:37.732Z,99092.28
2023-04-09T01:52:39.505Z,99084.09
2023-04-09T01:53:41.822Z,99090.91
2023-04-09T01:54:43.769Z,99090.22
2023-04-09T01:55:45.222Z,99088.41
2023-04-09T01:56:48.289Z,99094.88
2023-04-09T01:57:49.727Z,99092.22
2023-04-09T01:58:52.942Z,99090.38
2023-04-09T01:59:55.185Z,99086.22
2023-04-09T02:01:03.525Z,99094.09
2023-04-09T02:02:12.287Z,99090.91
2023-04-09T02:03:21.797Z,99083.34
2023-04-09T02:04:32.682Z,99091.53
2023-04-09T02:05:41.795Z,99091.84
2023-04-09T02:07:01.470Z,99085.63
2023-04-09T02:08:05.593Z,99090.13
2023-04-09T02:09:09.092Z,99084.53
2023-04-09T02:10:13.192Z,99090.59
2023-04-09T02:11:16.368Z,99092.44
2023-04-09T02:12:19.647Z,99090.78
2023-04-09T02:13:21.984Z,99091.09
2023-04-09T02:14:26.551Z,99097.13
2023-04-09T02:15:28.995Z,99096.81
2023-04-09T02:16:32.193Z,99090.00
2023-04-09T02:17:33.929Z,99095.94
2023-04-09T02:18:35.434Z,99095.00
2023-04-09T02:19:44.994Z,99090.06
2023-04-09T02:20:46.412Z,99095.47
2023-04-09T02:21:47.914Z,99088.53
2023-04-09T02:22:49.373Z,99091.63
2023-04-09T02:23:51.036Z,99092.06
2023-04-09T02:24:52.475Z,99086.81
2023-04-09T02:25:54.349Z,99093.94
2023-04-09T02:26:55.858Z,99091.28
2023-04-09T02:27:57.296Z,99085.91
2023-04-09T02:28:58.728Z,99092.56
2023-04-09T02:30:00.245Z,99095.22
2023-04-09T02:31:01.761Z,99092.88
2023-04-09T02:32:03.359Z,99091.34
2023-04-09T02:33:05.211Z,99096.94
2023-04-09T02:34:06.660Z,99093.72
2023-04-09T02:35:08.250Z,99091.19
2023-04-09T02:36:13.521Z,99088.91
2023-04-09T02:37:15.064Z,99088.28
2023-04-09T02:38:16.560Z,99090.13
2023-04-09T02:39:17.988Z,99089.47
2023-04-09T02:40:19.967Z,99090.13
2023-04-09T02:41:21.441Z,99087.81
2023-04-09T02:42:22.920Z,99087.50
2023-04-09T02:43:24.626Z,99087.19
2023-04-09T02:44:26.114Z,99083.78
2023-04-09T02:45:28.019Z,99083.78
2023-04-09T02:46:30.125Z,99088.38
2023-04-09T02:47:31.676Z,99087.94
2023-04-09T02:48:33.184Z,99080.38
2023-04-09T02:49:35.180Z,99084.88
2023-04-09T02:50:36.676Z,99084.56
2023-04-09T02:51:38.129Z,99090.00
2023-04-09T02:52:39.548Z,99081.97
2023-04-09T02:53:41.768Z,99089.41
2023-04-09T02:54:43.213Z,99087.41
2023-04-09T02:55:44.611Z,99090.81
2023-04-09T02:56:46.168Z,99088.19
2023-04-09T02:57:47.609Z,99082.47
2023-04-09T02:58:51.877Z,99087.25
2023-04-09T02:59:53.479Z,99087.91
2023-04-09T03:00:54.869Z,99091.75
2023-04-09T03:01:56.355Z,99083.53
2023-04-09T03:02:58.546Z,99083.25
2023-04-09T03:04:01.537Z,99087.25
2023-04-09T03:05:03.373Z,99080.03
2023-04-09T03:06:04.869Z,99085.59
2023-04-09T03:07:06.812Z,99087.44
2023-04-09T03:08:08.753Z,99080.97
2023-04-09T03:09:10.335Z,99083.63
2023-04-09T03:10:11.742Z,99084.09
2023-04-09T03:11:13.267Z,99083.19
2023-04-09T03:12:14.997Z,99069.28
2023-04-09T03:13:16.919Z,99081.63
2023-04-09T03:14:18.388Z,99083.50
2023-04-09T03:15:19.842Z,99081.63
2023-04-09T03:16:21.845Z,99085.38
2023-04-09T03:17:27.066Z,99086.44
2023-04-09T03:18:28.633Z,99083.34
2023-04-09T03:19:31.337Z,99083.69
2023-04-09T03:20:32.861Z,99090.03
2023-04-09T03:21:34.304Z,99086.66
2023-04-09T03:22:39.315Z,99084.22
2023-04-09T03:23:40.814Z,99079.91
2023-04-09T03:24:42.724Z,99076.34
2023-04-09T03:25:44.269Z,99079.44
2023-04-09T03:26:45.818Z,99077.28
2023-04-09T03:27:47.746Z,99080.72
2023-04-09T03:28:49.222Z,99078.84
2023-04-09T03:29:50.745Z,99077.00
2023-04-09T03:30:52.803Z,99082.72
2023-04-09T03:31:54.329Z,99080.09
2023-04-09T03:32:55.975Z,99086.72
2023-04-09T03:33:57.435Z,99079.50
2023-04-09T03:34:58.838Z,99085.03
2023-04-09T03:36:00.448Z,99083.19
2023-04-09T03:37:01.955Z,99080.72
2023-04-09T03:38:03.409Z,99082.47
2023-04-09T03:39:04.923Z,99078.91
2023-04-09T03:40:07.015Z,99084.44
2023-04-09T03:41:08.577Z,99086.47
2023-04-09T03:42:10.054Z,99086.78
2023-04-09T03:43:11.525Z,99084.16
2023-04-09T03:44:13.485Z,99083.69
2023-04-09T03:45:14.913Z,99086.03
2023-04-09T03:46:17.800Z,99088.81
2023-04-09T03:47:19.285Z,99083.25
2023-04-09T03:48:20.663Z,99085.28
2023-04-09T03:49:22.238Z,99086.34
2023-04-09T03:50:23.850Z,99095.91
2023-04-09T03:51:25.295Z,99091.91
2023-04-09T03:52:26.864Z,99095.75
2023-04-09T03:53:28.763Z,99092.22
2023-04-09T03:54:30.589Z,99093.94
2023-04-09T03:55:32.203Z,99093.00
2023-04-09T03:56:33.644Z,99093.44
2023-04-09T03:57:35.684Z,99091.75
2023-04-09T03:58:37.586Z,99094.22
2023-04-09T03:59:39.112Z,99097.31
2023-04-09T04:00:40.633Z,99097.31
2023-04-09T04:01:42.638Z,99097.94
2023-04-09T04:02:44.246Z,99098.25
2023-04-09T04:03:46.018Z,99094.22
2023-04-09T04:04:48.225Z,99097.16
2023-04-09T04:05:49.760Z,99103.94
2023-04-09T04:06:51.469Z,99100.53
2023-04-09T04:07:53.364Z,99096.53
2023-04-09T04:08:55.056Z,99096.97
2023-04-09T04:09:56.614Z,99095.75
2023-04-09T04:11:05.058Z,99100.06
2023-04-09T04:12:06.551Z,99095.00
2023-04-09T04:13:11.212Z,99099.91
2023-04-09T04:14:12.683Z,99105.63
2023-04-09T04:15:14.489Z,99097.75
2023-04-09T04:16:16.088Z,99097.47
2023-04-09T04:17:17.605Z,99103.31
2023-04-09T04:18:19.033Z,99099.00
2023-04-09T04:19:20.903Z,99108.56
2023-04-09T04:20:22.343Z,99103.31
2023-04-09T04:21:23.753Z,99107.19
2023-04-09T04:22:26.204Z,99108.72
2023-04-09T04:23:28.493Z,99108.25
2023-04-09T04:24:29.918Z,99111.50
2023-04-09T04:25:31.493Z,99109.47
2023-04-09T04:26:33.005Z,99110.25
2023-04-09T04:27:34.445Z,99108.41
2023-04-09T04:28:37.425Z,99105.31
2023-04-09T04:29:39.396Z,99109.81
2023-04-09T04:30:43.491Z,99112.72
2023-04-09T04:31:44.985Z,99113.78
2023-04-09T04:32:46.487Z,99114.41
2023-04-09T04:33:48.427Z,99115.47
2023-04-09T04:34:50.543Z,99111.31
2023-04-09T04:35:52.107Z,99124.44
2023-04-09T04:36:53.556Z,99126.28
2023-04-09T04:37:55.476Z,99120.72
2023-04-09T04:38:56.882Z,99121.97
2023-04-09T04:39:58.388Z,99120.72
2023-04-09T04:40:59.843Z,99129.03
2023-04-09T04:42:01.438Z,99127.19
2023-04-09T04:43:03.383Z,99122.13
2023-04-09T04:44:04.884Z,99129.97
2023-04-09T04:45:07.036Z,99132.88
2023-04-09T04:46:08.663Z,99131.06
2023-04-09T04:47:10.327Z,99130.28
2023-04-09T04:48:11.791Z,99130.41
2023-04-09T04:49:13.196Z,99128.56
2023-04-09T04:50:14.729Z,99132.59
2023-04-09T04:51:16.696Z,99129.97
2023-04-09T04:52:18.183Z,99133.03
2023-04-09T04:53:19.625Z,99135.03
2023-04-09T04:54:21.045Z,99129.47
2023-04-09T04:55:22.480Z,99134.44
2023-04-09T04:56:23.902Z,99137.22
2023-04-09T04:57:25.481Z,99136.13
2023-04-09T04:58:26.999Z,99141.22
2023-04-09T04:59:28.650Z,99140.72
2023-04-09T05:00:30.074Z,99138.72
2023-04-09T05:01:31.742Z,99138.41
2023-04-09T05:02:33.358Z,99138.56
2023-04-09T05:03:35.038Z,99144.28
2023-04-09T05:04:36.726Z,99137.78
2023-04-09T05:05:38.210Z,99140.09
2023-04-09T05:06:40.193Z,99137.97
2023-04-09T05:07:41.632Z,99134.88
2023-04-09T05:08:43.133Z,99130.25
2023-04-09T05:09:45.071Z,99132.25
2023-04-09T05:10:46.933Z,99138.72
2023-04-09T05:11:48.371Z,99134.72
2023-04-09T05:12:50.326Z,99137.81
2023-04-09T05:13:51.770Z,99136.28
2023-04-09T05:14:53.668Z,99132.72
2023-04-09T05:15:55.217Z,99140.28
2023-04-09T05:16:56.715Z,99135.03
2023-04-09T05:17:58.434Z,99134.56
2023-04-09T05:18:59.938Z,99141.34
2023-04-09T05:20:01.370Z,99138.72
2023-04-09T05:21:02.880Z,99137.97
2023-04-09T05:22:04.935Z,99134.25
2023-04-09T05:23:06.411Z,99139.19
2023-04-09T05:24:07.837Z,99139.34
2023-04-09T05:25:11.111Z,99139.22
2023-04-09T05:26:12.588Z,99135.06
2023-04-09T05:27:14.069Z,99139.53
2023-04-09T05:28:16.869Z,99137.06
2023-04-09T05:29:18.354Z,99139.84
2023-04-09T05:30:19.890Z,99138.78
2023-04-09T05:31:21.307Z,99137.84
2023-04-09T05:32:22.841Z,99146.16
2023-04-09T05:33:24.324Z,99139.56
2023-04-09T05:34:25.819Z,99141.84
2023-04-09T05:35:27.309Z,99136.44
2023-04-09T05:36:28.769Z,99142.47
2023-04-09T05:37:30.428Z,99138.78
2023-04-09T05:38:32.404Z,99147.41
2023-04-09T05:39:33.891Z,99139.22
2023-04-09T05:40:35.546Z,99134.44
2023-04-09T05:41:38.691Z,99146.19
2023-04-09T05:42:40.318Z,99141.53
2023-04-09T05:43:42.807Z,99144.66
2023-04-09T05:44:44.698Z,99146.78
2023-04-09T05:45:46.214Z,99150.16
2023-04-09T05:46:47.726Z,99138.78
2023-04-09T05:47:49.306Z,99144.94
2023-04-09T05:48:51.355Z,99140.47
2023-04-09T05:49:52.960Z,99146.97
2023-04-09T05:50:55.633Z,99145.25
2023-04-09T05:51:57.321Z,99144.19
2023-04-09T05:52:58.665Z,99142.81
2023-04-09T05:54:01.480Z,99143.25
2023-04-09T05:55:03.278Z,99146.97
2023-04-09T05:56:13.413Z,99147.44
2023-04-09T05:57:14.999Z,99147.75
2023-04-09T05:58:18.733Z,99143.44
2023-04-09T05:59:20.735Z,99138.34
2023-04-09T06:00:22.228Z,99147.13
2023-04-09T06:01:23.706Z,99147.63
2023-04-09T06:02:25.893Z,99143.44
2023-04-09T06:03:29.254Z,99149.44
2023-04-09T06:04:30.989Z,99149.75
2023-04-09T06:05:33.219Z,99151.47
2023-04-09T06:06:34.733Z,99153.59
2023-04-09T06:07:50.213Z,99149.28
2023-04-09T06:08:51.704Z,99143.53
2023-04-09T06:09:53.170Z,99155.28
2023-04-09T06:10:54.688Z,99153.59
2023-04-09T06:11:56.144Z,99153.00
2023-04-09T06:12:57.569Z,99155.91
2023-04-09T06:13:59.031Z,99161.91
2023-04-09T06:15:00.532Z,99160.69
2023-04-09T06:16:04.761Z,99152.00
2023-04-09T06:17:06.282Z,99155.38
2023-04-09T06:18:07.859Z,99156.88
2023-04-09T06:19:09.410Z,99160.75
2023-04-09T06:20:11.286Z,99158.28
2023-04-09T06:21:13.678Z,99157.47
2023-04-09T06:22:15.525Z,99163.47
2023-04-09T06:23:17.186Z,99154.19
2023-04-09T06:24:18.653Z,99159.75
2023-04-09T06:25:20.239Z,99162.34
2023-04-09T06:26:21.758Z,99167.69
2023-04-09T06:27:23.299Z,99163.94
2023-04-09T06:28:24.950Z,99162.84
2023-04-09T06:29:26.403Z,99166.38
2023-04-09T06:30:27.914Z,99162.78
2023-04-09T06:31:29.429Z,99159.16
2023-04-09T06:32:33.642Z,99164.03
2023-04-09T06:33:39.253Z,99168.59
2023-04-09T06:34:40.684Z,99162.81
2023-04-09T06:35:42.565Z,99168.13
2023-04-09T06:36:44.575Z,99168.41
2023-04-09T06:37:46.021Z,99169.16
2023-04-09T06:38:47.457Z,99167.53
2023-04-09T06:40:00.337Z,99171.63
2023-04-09T06:41:02.649Z,99172.00
2023-04-09T06:42:04.604Z,99166.63
2023-04-09T06:43:06.860Z,99168.22
2023-04-09T06:44:08.383Z,99165.94
2023-04-09T06:45:10.216Z,99172.34
2023-04-09T06:46:12.473Z,99169.16
2023-04-09T06:47:13.918Z,99170.03
2023-04-09T06:48:15.474Z,99165.31
2023-04-09T06:49:16.896Z,99166.75
2023-04-09T06:50:18.416Z,99175.78
2023-04-09T06:51:19.944Z,99173.22
2023-04-09T06:52:21.436Z,99173.38
2023-04-09T06:53:23.459Z,99174.78
2023-04-09T06:54:25.074Z,99171.63
2023-04-09T06:55:27.014Z,99176.00
2023-04-09T06:56:28.538Z,99166.97
2023-04-09T06:57:30.000Z,99174.00
2023-04-09T06:58:31.608Z,99171.66
2023-04-09T06:59:33.925Z,99170.06
2023-04-09T07:00:35.499Z,99180.84
2023-04-09T07:01:37.837Z,99173.91
2023-04-09T07:02:39.662Z,99174.84
2023-04-09T07:03:41.759Z,99179.97
2023-04-09T07:04:43.567Z,99182.28
2023-04-09T07:05:45.119Z,99181.81
2023-04-09T07:06:46.909Z,99172.78
2023-04-09T07:07:48.458Z,99182.41
2023-04-09T07:08:50.828Z,99179.63
2023-04-09T07:09:53.462Z,99180.06
2023-04-09T07:10:55.013Z,99183.88
2023-04-09T07:11:56.461Z,99181.00
2023-04-09T07:12:57.951Z,99180.31
2023-04-09T07:13:59.817Z,99175.66
2023-04-09T07:15:03.079Z,99185.22
2023-04-09T07:16:04.968Z,99182.84
2023-04-09T07:17:06.430Z,99189.84
2023-04-09T07:18:08.122Z,99182.78
2023-04-09T07:19:10.021Z,99190.19
2023-04-09T07:20:11.945Z,99191.28
2023-04-09T07:21:13.957Z,99194.50
2023-04-09T07:22:15.453Z,99185.91
2023-04-09T07:23:17.339Z,99188.19
2023-04-09T07:24:18.750Z,99188.06
2023-04-09T07:25:21.909Z,99185.84
2023-04-09T07:26:23.380Z,99179.25
2023-04-09T07:27:26.415Z,99184.09
2023-04-09T07:28:28.163Z,99186.19
2023-04-09T07:29:29.608Z,99182.56
2023-04-09T07:30:32.183Z,99186.94
2023-04-09T07:31:35.907Z,99188.00
2023-04-09T07:32:38.227Z,99186.97
2023-04-09T07:33:39.698Z,99193.19
2023-04-09T07:34:41.928Z,99183.97
2023-04-09T07:35:43.446Z,99198.16
2023-04-09T07:36:44.852Z,99185.81
2023-04-09T07:37:46.390Z,99191.16
2023-04-09T07:38:47.863Z,99192.41
2023-04-09T07:39:51.266Z,99190.44
2023-04-09T07:40:53.064Z,99189.41
2023-04-09T07:41:54.520Z,99195.16
2023-04-09T07:42:56.104Z,99192.88
2023-04-09T07:43:57.587Z,99190.22
2023-04-09T07:44:59.022Z,99187.94
2023-04-09T07:46:00.758Z,99185.75
2023-04-09T07:47:05.882Z,99195.22
2023-04-09T07:48:09.290Z,99187.63
2023-04-09T07:49:10.963Z,99193.75
2023-04-09T07:50:12.786Z,99190.00
2023-04-09T07:51:15.324Z,99196.81
2023-04-09T07:52:16.825Z,99186.91
2023-04-09T07:53:18.251Z,99192.22
2023-04-09T07:54:21.269Z,99186.16
2023-04-09T07:55:22.855Z,99192.97
2023-04-09T07:56:24.360Z,99190.91
2023-04-09T07:57:26.342Z,99185.38
2023-04-09T07:58:28.276Z,99188.53
2023-04-09T07:59:31.531Z,99192.66
2023-04-09T08:00:33.164Z,99194.25
2023-04-09T08:01:34.628Z,99186.81
2023-04-09T08:02:36.494Z,99182.16
2023-04-09T08:03:38.142Z,99188.00
2023-04-09T08:04:39.910Z,99186.91
2023-04-09T08:05:41.466Z,99184.06
2023-04-09T08:06:42.951Z,99186.03
2023-04-09T08:07:44.415Z,99186.53
2023-04-09T08:08:46.139Z,99186.59
2023-04-09T08:09:47.617Z,99190.19
2023-04-09T08:10:49.082Z,99189.97
2023-04-09T08:11:50.641Z,99189.44
2023-04-09T08:12:52.112Z,99183.97
2023-04-09T08:13:54.301Z,99188.66
2023-04-09T08:14:56.048Z,99193.81
2023-04-09T08:16:01.181Z,99192.59
2023-04-09T08:17:02.757Z,99200.53
2023-04-09T08:18:04.489Z,99198.19
2023-04-09T08:19:06.199Z,99204.06
2023-04-09T08:20:08.245Z,99207.72
2023-04-09T08:21:09.691Z,99201.19
2023-04-09T08:22:11.533Z,99205.91
2023-04-09T08:23:13.024Z,99205.69
2023-04-09T08:24:14.975Z,99208.25
2023-04-09T08:25:16.719Z,99209.81
2023-04-09T08:26:18.215Z,99211.47
2023-04-09T08:27:19.784Z,99211.75
2023-04-09T08:28:21.731Z,99206.44
2023-04-09T08:29:23.230Z,99203.03
2023-04-09T08:30:25.045Z,99202.09
2023-04-09T08:31:27.360Z,99218.78
2023-04-09T08:32:29.244Z,99210.03
2023-04-09T08:33:31.768Z,99208.03
2023-04-09T08:34:33.227Z,99213.78
2023-04-09T08:35:34.678Z,99206.88
2023-04-09T08:36:36.245Z,99203.00
2023-04-09T08:37:37.767Z,99204.06
2023-04-09T08:38:39.211Z,99199.00
2023-04-09T08:39:40.773Z,99200.88
2023-04-09T08:40:42.361Z,99196.38
2023-04-09T08:41:44.431Z,99199.47
2023-04-09T08:42:47.035Z,99194.13
2023-04-09T08:43:57.889Z,99191.84
2023-04-09T08:45:04.032Z,99191.06
2023-04-09T08:46:06.093Z,99194.47
2023-04-09T08:47:11.591Z,99195.97
2023-04-09T08:48:13.985Z,99194.78
2023-04-09T08:49:15.742Z,99190.91
2023-04-09T08:50:17.314Z,99190.41
2023-04-09T08:51:21.044Z,99196.34
2023-04-09T08:52:32.659Z,99183.72
2023-04-09T08:53:36.153Z,99187.47
2023-04-09T08:54:37.982Z,99182.41
2023-04-09T08:55:39.464Z,99181.63
2023-04-09T08:56:40.959Z,99192.94
2023-04-09T08:57:44.025Z,99184.47
2023-04-09T08:58:46.918Z,99182.88
2023-04-09T08:59:48.286Z,99181.91
2023-04-09T09:00:49.842Z,99187.59
2023-04-09T09:02:11.239Z,99176.97
2023-04-09T09:03:13.310Z,99181.78
2023-04-09T09:04:15.008Z,99181.56
2023-04-09T09:05:16.668Z,99179.31
2023-04-09T09:06:22.490Z,99181.25
2023-04-09T09:07:24.008Z,99184.59
2023-04-09T09:08:26.716Z,99185.22
2023-04-09T09:09:28.173Z,99184.78
2023-04-09T09:10:40.984Z,99183.97
2023-04-09T09:11:44.687Z,99183.19
2023-04-09T09:12:46.111Z,99189.44
2023-04-09T09:13:58.068Z,99171.41
2023-04-09T09:15:00.045Z,99179.56
2023-04-09T09:16:15.184Z,99182.44
2023-04-09T09:17:17.043Z,99180.38
2023-04-09T09:18:19.473Z,99184.81
2023-04-09T09:19:24.354Z,99184.59
2023-04-09T09:20:27.550Z,99187.56
2023-04-09T09:21:30.136Z,99184.19
2023-04-09T09:22:55.255Z,99186.13
2023-04-09T09:23:57.579Z,99181.94
2023-04-09T09:24:59.036Z,99187.59
2023-04-09T09:26:00.508Z,99190.69
2023-04-09T09:27:02.705Z,99193.72
2023-04-09T09:28:12.058Z,99192.13
2023-04-09T09:29:13.817Z,99188.31
2023-04-09T09:30:26.880Z,99182.28
2023-04-09T09:31:28.619Z,99182.59
2023-04-09T09:32:30.392Z,99184.16
2023-04-09T09:33:33.764Z,99186.84
2023-04-09T09:34:35.241Z,99179.34
2023-04-09T09:35:56.893Z,99187.28
2023-04-09T09:36:58.456Z,99191.44
2023-04-09T09:38:06.560Z,99190.69
2023-04-09T09:39:12.221Z,99190.16
2023-04-09T09:40:27.835Z,99193.97
2023-04-09T09:41:29.630Z,99189.09
2023-04-09T09:42:31.842Z,99184.59
2023-04-09T09:43:51.758Z,99187.19
2023-04-09T09:44:55.032Z,99184.16
2023-04-09T09:45:57.344Z,99192.56
2023-04-09T09:46:58.951Z,99188.41
2023-04-09T09:48:00.679Z,99189.25
2023-04-09T09:49:02.408Z,99186.72
2023-04-09T09:50:04.195Z,99185.16
2023-04-09T09:51:11.041Z,99190.22
2023-04-09T09:52:12.766Z,99186.59
2023-04-09T09:53:17.105Z,99188.69
2023-04-09T09:54:23.470Z,99186.66
2023-04-09T09:55:29.036Z,99188.84
2023-04-09T09:56:33.962Z,99183.25
2023-04-09T09:57:41.721Z,99185.19
2023-04-09T09:58:56.409Z,99184.22
2023-04-09T10:00:04.225Z,99188.78
2023-04-09T10:01:11.284Z,99183.50
2023-04-09T10:02:19.173Z,99190.38
2023-04-09T10:03:27.649Z,99181.72
2023-04-09T10:04:32.410Z,99183.25
2023-04-09T10:05:36.676Z,99173.41
2023-04-09T10:06:38.786Z,99177.19
2023-04-09T10:07:41.044Z,99176.00
2023-04-09T10:08:42.779Z,99172.53
2023-04-09T10:09:48.776Z,99177.41
2023-04-09T10:10:52.424Z,99176.66
2023-04-09T10:11:56.009Z,99178.94
2023-04-09T10:12:57.978Z,99180.06
2023-04-09T10:13:59.731Z,99176.53
2023-04-09T10:15:05.131Z,99170.34
2023-04-09T10:16:07.594Z,99169.66
2023-04-09T10:17:09.245Z,99176.41
2023-04-09T10:18:10.829Z,99173.06
2023-04-09T10:19:14.712Z,99171.41
2023-04-09T10:20:27.531Z,99166.94
2023-04-09T10:21:47.695Z,99169.66
2023-04-09T10:22:51.782Z,99171.06
2023-04-09T10:23:53.999Z,99169.00
2023-04-09T10:24:56.295Z,99169.94
2023-04-09T10:25:57.752Z,99168.22
2023-04-09T10:27:10.287Z,99160.47
2023-04-09T10:28:18.429Z,99166.25
2023-04-09T10:29:29.169Z,99162.16
2023-04-09T10:30:37.304Z,99161.91
2023-04-09T10:32:03.158Z,99163.69
2023-04-09T10:33:15.922Z,99159.72
2023-04-09T10:34:21.405Z,99158.06
2023-04-09T10:35:26.877Z,99157.88
2023-04-09T10:36:31.458Z,99156.16
2023-04-09T10:37:35.518Z,99151.75
2023-04-09T10:38:40.605Z,99159.03
2023-04-09T10:39:47.746Z,99154.47
2023-04-09T10:40:50.956Z,99156.00
2023-04-09T10:41:54.339Z,99159.84
2023-04-09T10:42:58.124Z,99153.38
2023-04-09T10:43:59.547Z,99158.47
2023-04-09T10:45:12.391Z,99159.94
2023-04-09T10:46:31.168Z,99159.25
2023-04-09T10:47:34.556Z,99154.72
2023-04-09T10:48:36.061Z,99149.00
2023-04-09T10:49:41.877Z,99145.25
2023-04-09T10:50:44.688Z,99141.84
2023-04-09T10:51:52.175Z,99145.56
2023-04-09T10:52:56.497Z,99147.72
2023-04-09T10:53:57.977Z,99143.50
2023-04-09T10:54:59.674Z,99144.59
2023-04-09T10:56:01.387Z,99136.63
2023-04-09T10:57:08.917Z,99146.19
2023-04-09T10:58:13.601Z,99153.88
2023-04-09T10:59:15.532Z,99143.34
2023-04-09T11:00:18.800Z,99143.78
2023-04-09T11:01:22.478Z,99141.94
2023-04-09T11:02:26.810Z,99141.28
2023-04-09T11:03:31.984Z,99137.91
2023-04-09T11:04:59.308Z,99140.59
2023-04-09T11:06:09.401Z,99148.97
2023-04-09T11:07:11.543Z,99146.66
2023-04-09T11:08:14.422Z,99145.22
2023-04-09T11:09:16.233Z,99138.78
2023-04-09T11:10:17.826Z,99135.34
2023-04-09T11:11:26.460Z,99138.44
2023-04-09T11:12:27.878Z,99137.22
2023-04-09T11:13:31.081Z,99134.16
2023-04-09T11:14:33.969Z,99135.66
2023-04-09T11:15:36.779Z,99134.44
2023-04-09T11:16:38.263Z,99135.16
2023-04-09T11:17:39.783Z,99133.47
2023-04-09T11:18:41.321Z,99127.06
2023-04-09T11:19:44.076Z,99135.88
2023-04-09T11:20:46.185Z,99134.34
2023-04-09T11:21:48.404Z,99133.91
2023-04-09T11:22:51.970Z,99136.47
2023-04-09T11:23:53.655Z,99132.66
2023-04-09T11:24:55.310Z,99132.34
2023-04-09T11:25:56.825Z,99130.50
2023-04-09T11:26:58.321Z,99126.34
2023-04-09T11:28:02.240Z,99125.94
2023-04-09T11:29:09.705Z,99127.13
2023-04-09T11:30:11.509Z,99131.34
2023-04-09T11:31:13.038Z,99124.19
2023-04-09T11:32:14.580Z,99131.78
2023-04-09T11:33:18.281Z,99127.66
2023-04-09T11:34:21.134Z,99125.03
2023-04-09T11:35:23.736Z,99127.22
2023-04-09T11:36:27.089Z,99124.53
2023-04-09T11:37:28.570Z,99128.03
2023-04-09T11:38:31.357Z,99128.13
2023-04-09T11:39:36.580Z,99116.44
2023-04-09T11:40:47.690Z,99123.75
2023-04-09T11:41:49.166Z,99124.16
2023-04-09T11:42:52.617Z,99121.34
2023-04-09T11:43:54.040Z,99124.75
2023-04-09T11:44:55.907Z,99125.59
2023-04-09T11:45:57.825Z,99124.19
2023-04-09T11:47:00.021Z,99123.41
2023-04-09T11:48:02.575Z,99122.66
2023-04-09T11:49:04.363Z,99129.78
2023-04-09T11:50:10.436Z,99128.94
2023-04-09T11:51:12.370Z,99124.00
2023-04-09T11:52:16.550Z,99127.75
2023-04-09T11:53:19.687Z,99126.09
2023-04-09T11:54:21.326Z,99125.34
2023-04-09T11:55:33.583Z,99125.31
2023-04-09T11:56:36.345Z,99119.97
2023-04-09T11:57:41.548Z,99126.75
2023-04-09T11:58:47.615Z,99120.34
2023-04-09T11:59:49.149Z,99123.09
2023-04-09T12:00:56.577Z,99120.50
2023-04-09T12:01:58.830Z,99118.69
2023-04-09T12:03:05.481Z,99117.25
2023-04-09T12:04:20.941Z,99121.44
2023-04-09T12:05:25.107Z,99116.81
2023-04-09T12:06:27.656Z,99116.84
2023-04-09T12:07:33.676Z,99112.31
2023-04-09T12:08:36.323Z,99109.66
2023-04-09T12:09:47.863Z,99113.97
2023-04-09T12:10:50.492Z,99109.44
2023-04-09T12:11:53.437Z,99109.84
2023-04-09T12:12:55.274Z,99115.44
2023-04-09T12:14:03.456Z,99118.88
2023-04-09T12:15:12.497Z,99116.72
2023-04-09T12:16:14.889Z,99116.31
2023-04-09T12:17:16.530Z,99113.25
2023-04-09T12:18:17.941Z,99112.53
2023-04-09T12:19:21.127Z,99113.66
2023-04-09T12:20:49.820Z,99115.50
2023-04-09T12:21:56.352Z,99110.56
2023-04-09T12:23:00.269Z,99113.22
2023-04-09T12:24:01.728Z,99111.66